Time;durP1;ratioP1;P1;durP2;ratioP2;P2;SDS_P1;SDS_P2;PMS_P1;PMS_P2;Temp;Humidity;BMP_temperature;BMP_pressure;BME280_temperature;BME280_humidity;BME280_pressure;Samples;Min_cycle;Max_cycle;Signal;HPM_P1;HPM_P2
2022/04/25 00:00:02;;;;;;;;;18.33;17.00;;;;;14.70;50.59;100170.63;5076701;27;45212;-60
2022/04/25 00:02:29;;;;;;;;;17.00;16.67;;;;;14.71;50.15;100177.72;5075882;27;45249;-59
2022/04/25 00:04:54;;;;;;;;;16.33;16.33;;;;;14.68;50.29;100172.59;5074080;27;45780;-61
2022/04/25 00:07:20;;;;;;;;;18.67;17.67;;;;;14.69;49.67;100176.13;5074576;28;47569;-60
2022/04/25 00:09:45;;;;;;;;;19.00;16.33;;;;;14.78;49.54;100182.56;5076005;27;45333;-60
2022/04/25 00:12:11;;;;;;;;;20.33;17.33;;;;;14.75;50.07;100171.13;5092573;27;45830;-59
2022/04/25 00:14:37;;;;;;;;;19.67;17.00;;;;;14.61;50.30;100166.03;5086856;27;45502;-58
2022/04/25 00:17:02;;;;;;;;;16.00;16.00;;;;;14.67;50.06;100186.94;5078477;28;48252;-60
2022/04/25 00:19:28;;;;;;;;;17.33;17.33;;;;;14.64;50.00;100184.53;5078347;28;45364;-59
2022/04/25 00:21:53;;;;;;;;;19.67;18.00;;;;;14.61;49.80;100171.41;5080032;28;45357;-59
2022/04/25 00:24:19;;;;;;;;;15.33;14.33;;;;;14.61;50.22;100176.75;5079298;27;45480;-60
2022/04/25 00:26:45;;;;;;;;;17.00;17.00;;;;;14.56;49.76;100178.91;5079252;27;45425;-60
2022/04/25 00:29:12;;;;;;;;;19.00;16.00;;;;;14.54;50.22;100183.53;5079164;27;45361;-60
2022/04/25 00:31:37;;;;;;;;;15.00;13.33;;;;;14.52;50.26;100174.78;5092599;27;45384;-59
2022/04/25 00:34:03;;;;;;;;;17.33;16.67;;;;;14.49;51.18;100169.69;5078390;27;45528;-60
2022/04/25 00:36:28;;;;;;;;;19.33;18.00;;;;;14.46;50.50;100177.97;5094990;27;46785;-60
2022/04/25 00:38:54;;;;;;;;;17.00;15.33;;;;;14.41;51.06;100178.28;5079055;27;45361;-58
2022/04/25 00:41:19;;;;;;;;;14.00;14.00;;;;;14.47;50.55;100185.00;5079275;27;45468;-59
2022/04/25 00:43:45;;;;;;;;;11.33;11.33;;;;;14.53;50.02;100184.50;5078457;27;45404;-60
2022/04/25 00:46:20;;;;;;;;;17.67;16.00;;;;;14.56;50.17;100178.91;5079425;27;46080;-59
2022/04/25 00:48:46;;;;;;;;;16.25;16.00;;;;;14.47;50.66;100177.00;5078154;27;45406;-59
2022/04/25 00:51:12;;;;;;;;;18.50;17.25;;;;;14.39;50.81;100182.03;5078195;28;45244;-60
2022/04/25 00:53:37;;;;;;;;;16.67;16.67;;;;;14.33;50.48;100187.88;5072395;28;45345;-60
2022/04/25 00:56:04;;;;;;;;;17.00;16.33;;;;;14.33;50.87;100179.88;5059415;28;46727;-60
2022/04/25 00:58:30;;;;;;;;;16.67;13.33;;;;;14.23;51.14;100181.53;5066705;28;45279;-60
2022/04/25 01:00:55;;;;;;;;;17.67;15.67;;;;;14.17;51.22;100178.34;5076491;27;45194;-60
2022/04/25 01:03:21;;;;;;;;;16.00;14.67;;;;;14.15;51.53;100182.97;5077458;27;45496;-60
2022/04/25 01:05:46;;;;;;;;;17.00;15.00;;;;;14.14;51.37;100183.94;5079612;28;45296;-60
2022/04/25 01:08:12;;;;;;;;;11.33;10.00;;;;;14.09;51.60;100179.94;5079994;27;45252;-58
2022/04/25 01:10:37;;;;;;;;;16.00;15.67;;;;;13.99;51.63;100174.44;5079660;27;45218;-59
2022/04/25 01:13:03;;;;;;;;;20.67;17.00;;;;;14.04;51.63;100193.66;5077745;28;45373;-59
2022/04/25 01:15:28;;;;;;;;;17.25;14.25;;;;;14.02;52.27;100184.03;5078729;27;45302;-60
2022/04/25 01:17:54;;;;;;;;;18.75;15.75;;;;;13.96;51.59;100182.69;5077541;28;45271;-60
2022/04/25 01:20:20;;;;;;;;;18.00;17.00;;;;;14.08;51.75;100191.59;5077602;27;45436;-59
2022/04/25 01:22:55;;;;;;;;;15.25;15.25;;;;;14.03;51.47;100178.56;5078706;27;45610;-59
2022/04/25 01:28:04;;;;;;;;;23.00;21.25;;;;;14.10;51.67;100181.63;5079077;27;45487;-59
2022/04/25 01:30:31;;;;;;;;;20.25;19.25;;;;;14.00;52.51;100169.94;5079019;27;45417;-60
2022/04/25 01:33:00;;;;;;;;;23.75;22.25;;;;;13.92;52.57;100186.56;5077545;27;45577;-59
2022/04/25 01:35:26;;;;;;;;;21.00;19.75;;;;;13.93;52.64;100180.25;5077068;28;45360;-59
2022/04/25 01:37:51;;;;;;;;;20.50;19.00;;;;;13.91;51.93;100175.97;5080690;27;45294;-60
2022/04/25 01:40:17;;;;;;;;;29.50;21.00;;;;;13.95;52.05;100178.31;5079418;28;45279;-59
2022/04/25 01:42:43;;;;;;;;;19.75;17.75;;;;;14.00;52.44;100185.97;5079499;27;45587;-60
2022/04/25 01:45:09;;;;;;;;;22.50;16.25;;;;;13.95;52.38;100181.00;5077487;27;45399;-59
2022/04/25 01:47:35;;;;;;;;;16.00;16.00;;;;;13.88;52.66;100188.63;5077943;28;45264;-59
2022/04/25 01:50:00;;;;;;;;;18.50;16.00;;;;;13.80;53.24;100184.81;5055823;28;45548;-60
2022/04/25 01:52:33;;;;;;;;;19.50;18.50;;;;;13.76;53.33;100188.69;5059159;28;45555;-60
2022/04/25 01:55:01;;;;;;;;;25.00;17.67;;;;;13.70;53.05;100190.03;5057811;28;46118;-59
2022/04/25 01:57:27;;;;;;;;;22.00;16.33;;;;;13.71;53.43;100196.22;5056761;28;45340;-59
2022/04/25 01:59:52;;;;;;;;;14.00;14.00;;;;;13.66;53.34;100193.03;5064403;28;45565;-60
2022/04/25 02:02:18;;;;;;;;;15.33;11.00;;;;;13.57;54.37;100210.63;5067927;27;45450;-59
2022/04/25 02:04:43;;;;;;;;;15.00;13.33;;;;;13.51;54.04;100206.56;5078652;27;46064;-60
2022/04/25 02:07:10;;;;;;;;;17.33;16.00;;;;;13.44;54.38;100210.69;5078737;27;45412;-60
2022/04/25 02:09:37;;;;;;;;;19.00;17.00;;;;;13.38;55.34;100208.44;5076708;27;45518;-61
2022/04/25 02:12:04;;;;;;;;;19.67;16.33;;;;;13.30;54.94;100213.50;5076773;27;45597;-59
2022/04/25 02:14:29;;;;;;;;;18.50;16.25;;;;;13.31;54.92;100220.56;5077873;27;45581;-59
2022/04/25 02:16:59;;;;;;;;;18.50;18.50;;;;;13.36;54.47;100223.72;5075819;27;45429;-59
2022/04/25 02:19:26;;;;;;;;;20.75;16.75;;;;;13.34;55.15;100223.00;5076747;28;45346;-59
2022/04/25 02:21:52;;;;;;;;;20.00;17.00;;;;;13.28;55.02;100220.75;5077918;27;45531;-59
2022/04/25 02:24:17;;;;;;;;;16.00;16.00;;;;;13.23;55.32;100218.44;5075874;28;46210;-60
2022/04/25 02:26:42;;;;;;;;;18.75;15.00;;;;;13.18;56.08;100225.06;5077892;27;45394;-60
2022/04/25 02:29:08;;;;;;;;;19.50;16.75;;;;;13.20;55.61;100228.50;5074237;27;45267;-59
2022/04/25 02:31:33;;;;;;;;;22.75;19.00;;;;;13.18;56.41;100225.06;5057595;28;45473;-59
2022/04/25 02:33:59;;;;;;;;;24.50;21.00;;;;;13.16;56.50;100221.66;5056973;28;46190;-57
2022/04/25 02:36:24;;;;;;;;;18.00;18.00;;;;;13.11;56.94;100218.44;5072352;27;45656;-59
2022/04/25 02:38:50;;;;;;;;;15.50;15.50;;;;;13.12;56.72;100220.13;5058136;28;45426;-59
2022/04/25 02:41:16;;;;;;;;;24.25;19.25;;;;;13.10;56.67;100228.25;5075944;27;45542;-61
2022/04/25 02:43:44;;;;;;;;;27.00;21.00;;;;;12.99;56.94;100215.69;5080041;27;46441;-59
2022/04/25 02:46:15;;;;;;;;;19.50;18.50;;;;;13.02;57.77;100219.97;5078001;28;45378;-60
2022/04/25 02:48:43;;;;;;;;;21.25;21.25;;;;;12.96;57.75;100231.94;5078192;27;45348;-61
2022/04/25 02:51:10;;;;;;;;;17.50;17.50;;;;;12.79;57.82;100197.59;5077254;27;45280;-60
2022/04/25 02:53:36;;;;;;;;;25.75;22.75;;;;;12.91;58.27;100225.22;5077386;27;46012;-61
2022/04/25 02:56:03;;;;;;;;;22.25;20.00;;;;;12.95;57.21;100230.22;5077272;27;45177;-60
2022/04/25 02:58:30;;;;;;;;;19.75;16.25;;;;;12.93;57.13;100215.28;5065761;27;45997;-60
2022/04/25 03:00:56;;;;;;;;;26.25;20.75;;;;;12.89;57.82;100213.78;5071229;27;45488;-60
2022/04/25 03:03:24;;;;;;;;;22.50;19.00;;;;;12.82;58.78;100233.88;5077834;27;46168;-60
2022/04/25 03:05:51;;;;;;;;;23.25;20.25;;;;;12.67;58.76;100215.31;5075558;28;45373;-60
2022/04/25 03:08:21;;;;;;;;;20.50;19.00;;;;;12.68;58.95;100226.84;5077593;27;45187;-59
2022/04/25 03:10:48;;;;;;;;;23.00;20.25;;;;;12.72;58.36;100228.34;5075195;27;45514;-60
2022/04/25 03:13:15;;;;;;;;;20.50;18.50;;;;;12.69;59.76;100239.22;5093156;27;47172;-61
2022/04/25 03:15:41;;;;;;;;;27.25;21.00;;;;;12.72;58.85;100239.00;5078359;27;45288;-59
2022/04/25 03:18:11;;;;;;;;;27.25;21.00;;;;;12.74;59.26;100237.06;5077099;27;45287;-60
2022/04/25 03:20:38;;;;;;;;;24.75;24.50;;;;;12.64;59.83;100231.56;5074803;27;45409;-58
2022/04/25 03:23:05;;;;;;;;;26.00;21.25;;;;;12.60;60.00;100229.19;5076814;27;45417;-58
2022/04/25 03:25:31;;;;;;;;;21.75;18.75;;;;;12.47;60.31;100223.00;5076869;27;45227;-59
2022/04/25 03:27:57;;;;;;;;;25.25;24.00;;;;;12.55;59.97;100231.34;5093068;27;45311;-59
2022/04/25 03:30:22;;;;;;;;;25.50;23.25;;;;;12.59;59.65;100227.50;5075121;27;45188;-60
2022/04/25 03:32:48;;;;;;;;;22.50;20.50;;;;;12.62;59.54;100232.59;5076176;27;46431;-59
2022/04/25 03:35:14;;;;;;;;;23.00;20.00;;;;;12.62;59.83;100238.78;5077211;27;45205;-61
2022/04/25 03:37:40;;;;;;;;;25.50;20.00;;;;;12.56;60.71;100238.38;5077057;27;45354;-60
2022/04/25 03:40:08;;;;;;;;;26.75;20.25;;;;;12.50;60.76;100238.78;5075051;27;45582;-60
2022/04/25 03:42:34;;;;;;;;;25.75;21.00;;;;;12.36;61.52;100240.59;5076403;27;46084;-61
2022/04/25 03:45:00;;;;;;;;;21.00;20.00;;;;;12.31;60.89;100223.22;5076352;27;45335;-59
2022/04/25 03:47:26;;;;;;;;;27.25;23.50;;;;;12.37;61.50;100247.66;5075585;27;45308;-59
2022/04/25 03:49:52;;;;;;;;;26.25;21.00;;;;;12.29;61.36;100234.00;5087489;27;45344;-60
2022/04/25 03:52:17;;;;;;;;;25.50;24.25;;;;;12.35;61.11;100241.56;5056684;28;45292;-58
2022/04/25 03:57:26;;;;;;;;;27.00;24.25;;;;;12.36;61.26;100250.41;5056973;28;45390;-58
2022/04/25 03:59:52;;;;;;;;;26.75;21.25;;;;;12.28;62.13;100245.63;5060947;27;45690;-61
2022/04/25 04:02:17;;;;;;;;;27.75;24.75;;;;;12.32;61.79;100252.44;5077744;27;45721;-60
2022/04/25 04:04:43;;;;;;;;;31.00;25.25;;;;;12.25;62.81;100251.19;5076511;28;45260;-60
2022/04/25 04:07:08;;;;;;;;;28.25;23.25;;;;;12.19;62.43;100262.25;5077301;27;45265;-59
2022/04/25 04:09:46;;;;;;;;;30.75;25.25;;;;;12.18;61.56;100262.34;5075468;27;45484;-59
2022/04/25 04:12:16;;;;;;;;;30.50;28.25;;;;;12.22;61.83;100261.19;5056059;28;45363;-59
2022/04/25 04:14:43;;;;;;;;;30.00;28.25;;;;;12.10;62.28;100255.72;5057421;28;45564;-60
2022/04/25 04:17:09;;;;;;;;;24.50;24.50;;;;;12.11;62.67;100259.25;5077350;28;45479;-60
2022/04/25 04:19:38;;;;;;;;;24.00;22.75;;;;;12.09;62.92;100259.34;5076892;27;45576;-59
2022/04/25 04:22:05;;;;;;;;;24.50;20.00;;;;;11.94;62.55;100247.06;5077366;27;45985;-59
2022/04/25 04:24:32;;;;;;;;;33.25;22.25;;;;;12.01;63.56;100276.81;5075815;27;45287;-59
2022/04/25 04:27:01;;;;;;;;;33.75;33.50;;;;;12.06;62.52;100272.03;5074818;28;45307;-60
2022/04/25 04:29:31;;;;;;;;;36.50;30.00;;;;;12.09;62.40;100275.34;5073648;27;45345;-59
2022/04/25 04:32:02;;;;;;;;;38.50;29.50;;;;;12.10;62.51;100276.19;5074450;28;46443;-58
2022/04/25 04:34:28;;;;;;;;;34.25;29.75;;;;;12.04;63.75;100279.28;5075682;27;45417;-58
2022/04/25 04:36:54;;;;;;;;;35.00;26.50;;;;;12.02;63.24;100286.53;5074483;28;45522;-60
2022/04/25 04:39:20;;;;;;;;;28.00;23.25;;;;;11.89;63.79;100285.63;5076173;28;45416;-60
2022/04/25 04:41:46;;;;;;;;;24.75;21.00;;;;;11.83;64.10;100297.53;5075605;27;45287;-59
2022/04/25 04:44:12;;;;;;;;;28.00;28.00;;;;;11.78;64.07;100294.28;5074917;27;45364;-59
2022/04/25 04:46:38;;;;;;;;;33.25;31.50;;;;;11.80;64.41;100292.41;5075689;27;45331;-58
2022/04/25 04:49:03;;;;;;;;;29.25;27.50;;;;;11.81;63.95;100304.78;5074490;27;45360;-59
2022/04/25 04:51:29;;;;;;;;;32.75;29.00;;;;;11.77;64.91;100309.44;5073922;27;46246;-60
2022/04/25 04:53:55;;;;;;;;;34.00;28.50;;;;;11.68;63.81;100304.69;5076118;27;45339;-61
2022/04/25 04:56:20;;;;;;;;;31.25;28.50;;;;;11.76;64.66;100323.72;5073035;27;45473;-59
2022/04/25 04:58:45;;;;;;;;;33.00;28.25;;;;;11.77;64.57;100313.91;5074771;27;45367;-61
2022/04/25 05:01:11;;;;;;;;;35.25;30.75;;;;;11.78;64.73;100327.13;5077709;27;46101;-60
2022/04/25 05:03:37;;;;;;;;;33.00;27.50;;;;;11.81;64.12;100323.44;5078758;28;45362;-59
2022/04/25 05:06:03;;;;;;;;;36.25;32.50;;;;;11.86;64.26;100331.16;5061059;28;45349;-62
2022/04/25 05:08:28;;;;;;;;;36.00;32.75;;;;;11.75;64.05;100323.81;5077825;28;45267;-60
2022/04/25 05:10:54;;;;;;;;;48.00;36.75;;;;;11.78;64.82;100334.25;5076126;27;45506;-60
2022/04/25 05:13:20;;;;;;;;;42.25;36.50;;;;;11.64;64.59;100337.81;5077005;27;45735;-58
2022/04/25 05:15:46;;;;;;;;;43.75;38.00;;;;;11.65;65.72;100336.88;5079251;28;45382;-60
2022/04/25 05:18:12;;;;;;;;;49.25;42.25;;;;;11.64;65.02;100335.16;5078953;27;45238;-58
2022/04/25 05:20:37;;;;;;;;;41.75;34.75;;;;;11.62;65.36;100342.41;5077121;28;48141;-60
2022/04/25 05:23:04;;;;;;;;;33.25;33.25;;;;;11.66;64.87;100343.91;5075766;27;45561;-59
2022/04/25 05:25:29;;;;;;;;;42.75;38.00;;;;;11.61;65.40;100338.03;5078434;27;45355;-59
2022/04/25 05:27:55;;;;;;;;;42.75;32.50;;;;;11.62;65.07;100347.72;5077484;27;45568;-58
2022/04/25 05:30:23;;;;;;;;;47.50;37.50;;;;;11.64;64.99;100355.63;5078652;27;47223;-57
2022/04/25 05:32:54;;;;;;;;;38.75;37.75;;;;;11.67;65.16;100366.06;5077150;27;45459;-59
2022/04/25 05:35:22;;;;;;;;;41.50;36.25;;;;;11.70;64.73;100355.19;5078975;27;45348;-60
2022/04/25 05:37:48;;;;;;;;;44.25;37.00;;;;;11.73;64.82;100357.69;5079363;27;45535;-63
2022/04/25 05:40:18;;;;;;;;;47.25;39.50;;;;;11.76;63.61;100361.00;5079447;27;45369;-59
2022/04/25 05:42:45;;;;;;;;;47.75;41.00;;;;;11.72;64.83;100354.19;5077409;27;45606;-60
2022/04/25 05:45:13;;;;;;;;;43.25;39.00;;;;;11.70;64.44;100355.19;5078971;27;45470;-61
2022/04/25 05:47:39;;;;;;;;;44.00;39.25;;;;;11.74;63.61;100370.06;5077922;27;45629;-58
2022/04/25 05:52:51;;;;;;;;;47.25;39.75;;;;;11.78;63.42;100363.56;5071174;27;45205;-59
2022/04/25 05:55:17;;;;;;;;;42.75;36.25;;;;;11.78;64.09;100385.75;5089612;27;45390;-60
2022/04/25 05:57:43;;;;;;;;;44.00;39.50;;;;;11.69;63.52;100375.66;5076995;27;45588;-60
2022/04/25 06:00:11;;;;;;;;;51.50;41.00;;;;;11.77;63.27;100384.03;5078596;27;46006;-61
2022/04/25 06:02:38;;;;;;;;;43.25;37.25;;;;;11.81;63.42;100380.25;5084576;27;45408;-59
2022/04/25 06:05:05;;;;;;;;;35.00;33.25;;;;;11.88;63.29;100394.03;5079810;27;45290;-63
2022/04/25 06:07:31;;;;;;;;;52.50;42.50;;;;;11.95;62.66;100397.16;5078624;27;45458;-61
2022/04/25 06:09:57;;;;;;;;;50.00;39.50;;;;;11.90;62.89;100401.94;5067587;27;46181;-62
2022/04/25 06:12:22;;;;;;;;;46.25;41.75;;;;;11.80;63.59;100407.84;5077962;27;45360;-59
2022/04/25 06:14:48;;;;;;;;;39.75;35.75;;;;;11.72;63.75;100410.13;5079289;27;45373;-60
2022/04/25 06:17:15;;;;;;;;;51.75;42.00;;;;;11.68;63.99;100405.91;5079029;27;45548;-61
2022/04/25 06:19:41;;;;;;;;;54.25;43.00;;;;;11.61;64.19;100399.28;5077519;27;47161;-59
2022/04/25 06:22:07;;;;;;;;;52.25;44.25;;;;;11.68;63.57;100413.91;5075610;27;45456;-59
2022/04/25 06:24:32;;;;;;;;;51.75;39.75;;;;;11.70;63.13;100411.16;5073478;27;45395;-60
2022/04/25 06:26:58;;;;;;;;;44.25;39.00;;;;;11.72;63.21;100410.13;5066492;27;45337;-59
2022/04/25 06:29:24;;;;;;;;;54.50;39.25;;;;;11.76;63.27;100408.09;5063969;27;46182;-58
2022/04/25 06:31:50;;;;;;;;;50.00;40.75;;;;;11.73;63.40;100416.31;5065103;27;45402;-59
2022/04/25 06:34:16;;;;;;;;;50.25;41.75;;;;;11.74;63.47;100415.34;5056921;28;45365;-61
2022/04/25 06:36:41;;;;;;;;;54.75;43.00;;;;;11.72;62.51;100390.63;5057402;27;45638;-60
2022/04/25 06:39:07;;;;;;;;;44.50;37.75;;;;;11.87;61.87;100404.81;5076140;27;46407;-60
2022/04/25 06:41:33;;;;;;;;;48.50;42.50;;;;;11.94;62.67;100414.94;5074768;27;45200;-60
2022/04/25 06:43:59;;;;;;;;;59.75;46.00;;;;;11.91;62.56;100422.28;5072293;27;45555;-60
2022/04/25 06:46:29;;;;;;;;;63.25;48.00;;;;;11.99;62.33;100428.00;5077722;27;45356;-59
2022/04/25 06:49:28;;;;;;;;;53.25;41.50;;;;;12.02;61.52;100425.97;5075553;27;46329;-61
2022/04/25 06:51:56;;;;;;;;;48.75;39.50;;;;;11.90;62.41;100429.44;5074736;27;45386;-60
2022/04/25 06:54:21;;;;;;;;;55.00;42.25;;;;;11.87;61.80;100426.13;5076493;27;45520;-59
2022/04/25 06:56:47;;;;;;;;;30.25;30.25;;;;;11.82;62.19;100429.06;5072718;27;45448;-59
2022/04/25 06:59:13;;;;;;;;;50.75;44.00;;;;;11.81;63.05;100436.19;5073699;27;46242;-60
2022/04/25 07:01:42;;;;;;;;;54.25;44.00;;;;;11.73;62.83;100426.97;5059737;27;45549;-59
2022/04/25 07:04:13;;;;;;;;;60.50;45.00;;;;;11.72;62.24;100434.09;5061236;27;45370;-60
2022/04/25 07:06:39;;;;;;;;;59.50;46.25;;;;;11.66;62.68;100418.47;5057446;27;45283;-59
2022/04/25 07:09:08;;;;;;;;;57.50;43.50;;;;;11.69;62.94;100431.59;5074052;28;45361;-59
2022/04/25 07:11:34;;;;;;;;;53.25;41.75;;;;;11.79;62.69;100432.78;5075301;27;46138;-59
2022/04/25 07:14:02;;;;;;;;;57.00;44.50;;;;;11.92;61.76;100438.19;5071884;27;45363;-60
2022/04/25 07:16:28;;;;;;;;;57.00;43.75;;;;;11.98;61.79;100444.91;5084083;27;45803;-62
2022/04/25 07:18:54;;;;;;;;;53.75;44.00;;;;;11.86;62.03;100446.56;5075801;27;45500;-61
2022/04/25 07:29:34;;;;;;;;;59.00;47.50;;;;;11.74;62.59;100448.19;5079512;28;45696;-61
2022/04/25 07:32:00;;;;;;;;;60.25;46.25;;;;;11.87;62.05;100452.75;5076731;28;45478;-60
2022/04/25 07:34:25;;;;;;;;;54.50;42.00;;;;;11.94;61.66;100454.06;5076648;27;45418;-63
2022/04/25 07:36:53;;;;;;;;;43.75;40.75;;;;;11.94;61.46;100454.06;5076932;27;45361;-60
2022/04/25 07:39:21;;;;;;;;;55.25;47.00;;;;;11.98;61.21;100459.13;5075600;27;45274;-60
2022/04/25 07:41:48;;;;;;;;;58.75;46.75;;;;;12.19;60.80;100462.19;5076742;27;45840;-59
2022/04/25 07:44:13;;;;;;;;;55.50;43.50;;;;;12.28;60.76;100458.09;5075413;27;45362;-60
2022/04/25 07:46:40;;;;;;;;;58.00;46.75;;;;;12.37;60.20;100447.69;5076603;27;45368;-61
2022/04/25 07:49:09;;;;;;;;;55.00;45.50;;;;;12.48;59.87;100443.44;5077030;27;45473;-61
2022/04/25 07:51:42;;;;;;;;;46.00;41.75;;;;;12.72;59.71;100452.47;5076274;27;45555;-61
2022/04/25 07:54:09;;;;;;;;;51.50;42.50;;;;;12.79;58.75;100445.78;5076494;27;45499;-60
2022/04/25 07:56:35;;;;;;;;;49.75;41.25;;;;;12.72;58.90;100463.16;5076961;27;45584;-64
2022/04/25 07:59:01;;;;;;;;;51.25;43.25;;;;;12.54;59.57;100459.03;5076407;28;45354;-67
2022/04/25 08:01:28;;;;;;;;;50.00;42.25;;;;;12.45;60.10;100475.66;5077585;27;45434;-60
2022/04/25 08:03:55;;;;;;;;;60.75;48.75;;;;;12.49;59.94;100479.81;5086074;27;45803;-61
2022/04/25 08:06:20;;;;;;;;;51.00;43.00;;;;;12.53;59.37;100473.34;5093967;27;45715;-62
2022/04/25 08:08:48;;;;;;;;;46.75;41.00;;;;;12.62;59.24;100478.91;5091875;27;46136;-61
2022/04/25 08:11:13;;;;;;;;;61.75;47.25;;;;;12.60;59.75;100479.97;5096494;27;45368;-60
2022/04/25 08:19:06;;;;;;;;;55.00;46.00;;;;;12.59;58.83;100478.25;5074911;27;45331;-56
2022/04/25 08:21:32;;;;;;;;;49.50;42.00;;;;;12.69;59.03;100485.56;5076965;27;45193;-66
2022/04/25 08:23:58;;;;;;;;;57.25;43.25;;;;;12.67;59.03;100486.63;5080122;27;45569;-65
2022/04/25 08:26:24;;;;;;;;;55.00;40.00;;;;;12.72;59.19;100489.81;5081509;27;45664;-59
2022/04/25 08:28:51;;;;;;;;;41.50;36.25;;;;;12.80;58.76;100492.84;5075018;27;45377;-62
2022/04/25 08:31:17;;;;;;;;;56.75;43.75;;;;;12.87;58.96;100494.13;5077003;27;45389;-60
2022/04/25 08:33:43;;;;;;;;;46.00;41.00;;;;;13.11;57.75;100496.13;5077582;27;45404;-61
2022/04/25 08:36:12;;;;;;;;;51.00;40.25;;;;;13.26;57.75;100495.09;5093878;27;45581;-62
2022/04/25 08:38:41;;;;;;;;;56.25;46.00;;;;;13.45;56.75;100506.22;5076966;27;45333;-62
2022/04/25 08:41:06;;;;;;;;;52.75;41.75;;;;;13.50;56.68;100509.44;5071162;27;45527;-61
2022/04/25 08:43:32;;;;;;;;;53.00;41.50;;;;;13.49;56.46;100505.03;5070404;27;45889;-61
2022/04/25 08:46:00;;;;;;;;;44.50;39.00;;;;;13.77;56.23;100511.13;5078002;27;45501;-62
2022/04/25 08:48:27;;;;;;;;;49.00;42.25;;;;;13.82;55.69;100511.69;5079638;27;46527;-61
2022/04/25 08:50:53;;;;;;;;;47.25;41.50;;;;;13.64;55.73;100505.78;5073342;27;45274;-63
2022/04/25 08:53:19;;;;;;;;;45.00;40.50;;;;;13.71;55.51;100506.22;5062785;27;45347;-61
2022/04/25 08:55:45;;;;;;;;;53.00;42.25;;;;;13.94;55.40;100516.16;5078275;27;45401;-61
2022/04/25 08:58:12;;;;;;;;;44.50;39.00;;;;;14.15;54.35;100513.75;5076145;27;46021;-61
2022/04/25 09:00:37;;;;;;;;;47.50;40.25;;;;;14.37;53.95;100515.72;5093829;27;45330;-61
2022/04/25 09:03:03;;;;;;;;;44.00;35.75;;;;;14.48;52.96;100523.00;5077273;27;45577;-62
2022/04/25 09:05:28;;;;;;;;;47.75;40.50;;;;;14.45;53.77;100524.94;5078072;27;45349;-61
2022/04/25 09:07:53;;;;;;;;;46.25;38.50;;;;;14.49;52.90;100525.56;5080886;27;45803;-61
2022/04/25 09:10:21;;;;;;;;;39.25;36.25;;;;;14.58;53.27;100530.22;5075947;27;45632;-60
2022/04/25 09:12:47;;;;;;;;;45.50;37.00;;;;;14.78;52.43;100520.72;5078317;27;46994;-58
2022/04/25 09:15:19;;;;;;;;;50.00;38.00;;;;;15.04;51.87;100524.13;5075668;27;45570;-58
2022/04/25 09:17:45;;;;;;;;;47.00;40.25;;;;;15.39;50.77;100528.63;5064341;27;45623;-58
2022/04/25 09:20:11;;;;;;;;;40.25;37.00;;;;;15.57;51.07;100525.38;5079831;27;45300;-60
2022/04/25 09:22:39;;;;;;;;;42.25;36.25;;;;;15.56;49.80;100525.50;5085826;27;45524;-60
2022/04/25 09:25:16;;;;;;;;;45.25;37.50;;;;;15.49;50.93;100533.13;5077804;27;45256;-57
2022/04/25 09:27:43;;;;;;;;;47.00;37.75;;;;;15.84;49.96;100527.75;5080808;27;45529;-60
2022/04/25 09:30:35;;;;;;;;;54.25;44.00;;;;;15.99;48.63;100524.81;5078603;27;45372;-60
2022/04/25 09:33:00;;;;;;;;;46.75;36.75;;;;;16.13;49.25;100519.19;5074199;27;45504;-58
2022/04/25 09:35:28;;;;;;;;;34.50;33.50;;;;;15.96;48.69;100525.06;5098776;27;45365;-59
2022/04/25 09:37:54;;;;;;;;;43.25;37.00;;;;;16.27;48.75;100523.44;5097295;27;45603;-58
2022/04/25 09:40:22;;;;;;;;;45.75;37.75;;;;;16.39;47.60;100519.78;5098361;27;45454;-60
2022/04/25 09:43:04;;;;;;;;;38.25;35.75;;;;;16.60;47.60;100509.13;5097562;27;45254;-58
2022/04/25 09:45:30;;;;;;;;;39.25;36.00;;;;;16.94;46.31;100515.25;5094510;27;45412;-59
2022/04/25 09:47:56;;;;;;;;;39.50;33.50;;;;;16.91;46.67;100529.78;5059789;28;45524;-57
2022/04/25 09:50:22;;;;;;;;;42.00;35.33;;;;;17.30;46.14;100524.72;5056848;27;45549;-59
2022/04/25 09:52:56;;;;;;;;;33.00;31.67;;;;;17.50;44.82;100521.19;5084458;27;45282;-56
2022/04/25 09:55:23;;;;;;;;;36.67;33.33;;;;;17.67;44.96;100523.25;5072416;27;45487;-58
2022/04/25 09:57:50;;;;;;;;;45.00;37.00;;;;;17.90;44.52;100518.59;5073902;27;46277;-59
2022/04/25 10:00:31;;;;;;;;;41.33;35.33;;;;;18.12;43.60;100528.34;5073129;27;45241;-60
2022/04/25 10:02:57;;;;;;;;;38.67;34.33;;;;;18.17;43.61;100519.84;5071754;28;45451;-60
2022/04/25 10:05:22;;;;;;;;;45.67;36.00;;;;;18.18;44.12;100508.94;5075486;28;45379;-60
2022/04/25 10:07:54;;;;;;;;;37.00;34.33;;;;;18.25;42.93;100507.41;5076350;28;46032;-58
2022/04/25 10:10:21;;;;;;;;;36.67;33.00;;;;;18.13;42.71;100531.88;5077883;27;45475;-60
2022/04/25 10:12:46;;;;;;;;;29.33;28.67;;;;;18.03;43.34;100533.66;5077540;27;45354;-60
2022/04/25 10:15:12;;;;;;;;;35.67;31.00;;;;;17.65;42.94;100513.63;5078759;27;45641;-59
2022/04/25 10:17:38;;;;;;;;;33.67;31.00;;;;;17.56;43.37;100515.25;5077837;28;46003;-60
2022/04/25 10:20:04;;;;;;;;;41.67;34.67;;;;;17.56;43.91;100522.47;5093140;27;45346;-60
2022/04/25 10:22:30;;;;;;;;;36.00;33.00;;;;;17.49;44.12;100519.50;5075544;27;45557;-59
2022/04/25 10:24:56;;;;;;;;;41.00;33.33;;;;;17.34;43.68;100531.56;5077726;27;45611;-60
2022/04/25 10:27:28;;;;;;;;;33.00;30.33;;;;;17.19;44.56;100530.16;5077179;27;46075;-59
2022/04/25 10:29:58;;;;;;;;;29.33;29.33;;;;;17.21;44.07;100530.91;5077583;27;45405;-62
2022/04/25 10:32:25;;;;;;;;;32.33;31.00;;;;;17.06;44.19;100533.91;5077749;27;45408;-60
2022/04/25 10:35:00;;;;;;;;;36.00;30.00;;;;;17.03;44.37;100528.75;5078021;27;45624;-61
2022/04/25 10:37:32;;;;;;;;;32.33;28.00;;;;;16.95;44.06;100528.56;5077289;27;46205;-61
2022/04/25 10:40:00;;;;;;;;;26.00;24.00;;;;;16.89;44.10;100526.38;5056909;28;45507;-61
2022/04/25 10:45:11;;;;;;;;;25.00;23.00;;;;;16.71;43.56;100539.50;5056251;28;45402;-60
2022/04/25 10:47:36;;;;;;;;;22.33;22.33;;;;;16.65;43.78;100539.97;5057072;28;45462;-61
2022/04/25 10:50:05;;;;;;;;;28.33;26.67;;;;;16.72;44.52;100535.84;5056756;28;45434;-62
2022/04/25 10:52:33;;;;;;;;;29.67;26.67;;;;;16.74;44.27;100544.63;5072652;27;45556;-60
2022/04/25 10:55:24;;;;;;;;;28.67;25.67;;;;;16.75;44.84;100524.00;5073080;27;45316;-60
2022/04/25 10:58:02;;;;;;;;;29.67;24.33;;;;;16.75;44.63;100540.09;5056402;28;45650;-60
2022/04/25 11:00:48;;;;;;;;;27.33;27.00;;;;;16.75;44.59;100534.72;5056813;27;45393;-61
2022/04/25 11:03:28;;;;;;;;;26.67;26.67;;;;;16.63;42.76;100535.72;5073515;27;45495;-62
2022/04/25 11:05:58;;;;;;;;;26.00;24.67;;;;;16.77;42.51;100538.13;5076399;28;45268;-60
2022/04/25 11:08:26;;;;;;;;;24.67;24.67;;;;;16.87;41.98;100528.34;5078856;27;45397;-62
2022/04/25 11:10:57;;;;;;;;;33.00;28.67;;;;;17.00;41.96;100528.16;5093369;27;45461;-61
2022/04/25 11:13:26;;;;;;;;;31.67;27.00;;;;;17.06;41.79;100528.53;5073607;27;45455;-61
2022/04/25 11:15:57;;;;;;;;;28.00;26.33;;;;;17.17;42.07;100532.13;5093157;27;45489;-60
2022/04/25 11:18:41;;;;;;;;;24.00;22.00;;;;;17.14;41.14;100537.75;5075599;27;46160;-62
2022/04/25 11:21:08;;;;;;;;;26.67;22.67;;;;;17.04;40.93;100534.97;5092939;27;45403;-62
2022/04/25 11:23:43;;;;;;;;;23.67;22.00;;;;;17.03;39.94;100544.03;5077197;27;45416;-62
2022/04/25 11:26:30;;;;;;;;;24.33;22.00;;;;;16.79;40.12;100531.66;5076983;27;45535;-62
2022/04/25 11:29:00;;;;;;;;;23.33;22.67;;;;;16.96;39.59;100532.09;5065658;28;47220;-59
2022/04/25 11:31:27;;;;;;;;;17.00;17.00;;;;;17.14;40.17;100529.69;5076407;27;45349;-59
2022/04/25 11:33:57;;;;;;;;;26.00;23.67;;;;;17.17;40.46;100524.91;5090305;27;45570;-62